27°C Temp
20°C Dewpoint
66% Humidity
Temperature
8 KM/H
5 MPH
4 KTS
270°
Due West

Wind Speed
Clear
Conditions
Pressure 1008.92 (hPa) - 29.79 (in)
Visibility 6.2 (mi) - 10.0 (km)

Current Conditions
LIRI
Location 25(km)
Metar :LIRI 151650Z 27004KT 240V310 CAVOK 27/20 Q1009
Mon 15th August 18:50 pm

Airport
  Metar Aviation API Data Provided by https://www.checkwx.com/ PHP scripts by weather34.com ©2022